sensor_id;sensor_type;location;lat;lon;timestamp;P1;durP1;ratioP1;P2;durP2;ratioP2
32491;SDS011;20605;49.742;18.802;2023-02-28T00:00:13;60.50;;;36.40;;
32491;SDS011;20605;49.742;18.802;2023-02-28T00:02:40;62.50;;;38.20;;
32491;SDS011;20605;49.742;18.802;2023-02-28T00:05:07;43.70;;;27.70;;
32491;SDS011;20605;49.742;18.802;2023-02-28T00:07:34;39.80;;;24.70;;
32491;SDS011;20605;49.742;18.802;2023-02-28T00:10:00;73.10;;;41.30;;
32491;SDS011;20605;49.742;18.802;2023-02-28T00:12:27;63.60;;;38.10;;
32491;SDS011;20605;49.742;18.802;2023-02-28T00:14:53;44.30;;;27.10;;
32491;SDS011;20605;49.742;18.802;2023-02-28T00:17:19;44.10;;;23.70;;
32491;SDS011;20605;49.742;18.802;2023-02-28T00:19:50;43.10;;;26.20;;
32491;SDS011;20605;49.742;18.802;2023-02-28T00:22:17;38.70;;;24.10;;
32491;SDS011;20605;49.742;18.802;2023-02-28T00:24:44;40.70;;;24.60;;
32491;SDS011;20605;49.742;18.802;2023-02-28T00:27:11;41.70;;;25.20;;
32491;SDS011;20605;49.742;18.802;2023-02-28T00:29:37;40.80;;;25.00;;
32491;SDS011;20605;49.742;18.802;2023-02-28T00:32:03;42.10;;;24.50;;
32491;SDS011;20605;49.742;18.802;2023-02-28T00:34:30;40.20;;;24.20;;
32491;SDS011;20605;49.742;18.802;2023-02-28T00:36:56;40.90;;;24.50;;
32491;SDS011;20605;49.742;18.802;2023-02-28T00:39:22;40.30;;;20.90;;
32491;SDS011;20605;49.742;18.802;2023-02-28T00:41:48;41.10;;;22.50;;
32491;SDS011;20605;49.742;18.802;2023-02-28T00:44:13;36.40;;;21.70;;
32491;SDS011;20605;49.742;18.802;2023-02-28T00:46:39;38.20;;;22.80;;
32491;SDS011;20605;49.742;18.802;2023-02-28T00:49:05;34.10;;;20.00;;
32491;SDS011;20605;49.742;18.802;2023-02-28T00:51:30;35.70;;;21.60;;
32491;SDS011;20605;49.742;18.802;2023-02-28T00:53:56;33.10;;;20.60;;
32491;SDS011;20605;49.742;18.802;2023-02-28T00:56:23;32.40;;;19.10;;
32491;SDS011;20605;49.742;18.802;2023-02-28T00:58:48;40.80;;;20.70;;
32491;SDS011;20605;49.742;18.802;2023-02-28T01:01:14;33.50;;;19.80;;
32491;SDS011;20605;49.742;18.802;2023-02-28T01:03:40;31.00;;;19.10;;
32491;SDS011;20605;49.742;18.802;2023-02-28T01:06:06;36.80;;;19.60;;
32491;SDS011;20605;49.742;18.802;2023-02-28T01:08:31;28.70;;;19.00;;
32491;SDS011;20605;49.742;18.802;2023-02-28T01:10:57;37.20;;;20.70;;
32491;SDS011;20605;49.742;18.802;2023-02-28T01:13:23;35.50;;;20.90;;
32491;SDS011;20605;49.742;18.802;2023-02-28T01:15:51;35.60;;;20.40;;
32491;SDS011;20605;49.742;18.802;2023-02-28T01:18:20;32.20;;;20.20;;
32491;SDS011;20605;49.742;18.802;2023-02-28T01:20:47;30.10;;;20.20;;
32491;SDS011;20605;49.742;18.802;2023-02-28T01:23:13;31.60;;;21.00;;
32491;SDS011;20605;49.742;18.802;2023-02-28T01:25:39;36.60;;;21.30;;
32491;SDS011;20605;49.742;18.802;2023-02-28T01:28:05;34.40;;;18.40;;
32491;SDS011;20605;49.742;18.802;2023-02-28T01:30:31;20.40;;;13.50;;
32491;SDS011;20605;49.742;18.802;2023-02-28T01:32:57;19.00;;;12.40;;
32491;SDS011;20605;49.742;18.802;2023-02-28T01:35:24;16.60;;;9.80;;
32491;SDS011;20605;49.742;18.802;2023-02-28T01:37:50;14.10;;;9.00;;
32491;SDS011;20605;49.742;18.802;2023-02-28T01:40:16;14.90;;;8.80;;
32491;SDS011;20605;49.742;18.802;2023-02-28T01:42:42;12.10;;;9.00;;
32491;SDS011;20605;49.742;18.802;2023-02-28T01:47:54;14.00;;;8.40;;
32491;SDS011;20605;49.742;18.802;2023-02-28T01:50:26;14.50;;;8.70;;
32491;SDS011;20605;49.742;18.802;2023-02-28T01:52:56;13.10;;;8.00;;
32491;SDS011;20605;49.742;18.802;2023-02-28T01:55:25;13.10;;;8.60;;
32491;SDS011;20605;49.742;18.802;2023-02-28T01:57:58;15.00;;;9.00;;
32491;SDS011;20605;49.742;18.802;2023-02-28T02:00:27;14.20;;;9.30;;
32491;SDS011;20605;49.742;18.802;2023-02-28T02:02:59;12.40;;;8.40;;
32491;SDS011;20605;49.742;18.802;2023-02-28T02:05:31;15.50;;;9.20;;
32491;SDS011;20605;49.742;18.802;2023-02-28T02:08:00;14.10;;;9.10;;
32491;SDS011;20605;49.742;18.802;2023-02-28T02:18:30;15.60;;;8.80;;
32491;SDS011;20605;49.742;18.802;2023-02-28T02:23:58;15.00;;;9.60;;
32491;SDS011;20605;49.742;18.802;2023-02-28T02:27:13;16.10;;;10.00;;
32491;SDS011;20605;49.742;18.802;2023-02-28T02:35:27;17.50;;;13.30;;
32491;SDS011;20605;49.742;18.802;2023-02-28T02:40:25;18.90;;;12.90;;
32491;SDS011;20605;49.742;18.802;2023-02-28T02:45:34;22.40;;;12.50;;
32491;SDS011;20605;49.742;18.802;2023-02-28T02:48:06;20.70;;;11.70;;
32491;SDS011;20605;49.742;18.802;2023-02-28T02:50:59;19.20;;;14.00;;
32491;SDS011;20605;49.742;18.802;2023-02-28T02:53:34;18.80;;;12.50;;
32491;SDS011;20605;49.742;18.802;2023-02-28T02:56:03;18.50;;;12.00;;
32491;SDS011;20605;49.742;18.802;2023-02-28T02:58:32;27.50;;;19.70;;
32491;SDS011;20605;49.742;18.802;2023-02-28T03:01:07;20.40;;;16.20;;
32491;SDS011;20605;49.742;18.802;2023-02-28T03:03:36;17.70;;;12.70;;
32491;SDS011;20605;49.742;18.802;2023-02-28T03:06:03;22.60;;;13.40;;
32491;SDS011;20605;49.742;18.802;2023-02-28T03:08:35;25.80;;;17.90;;
32491;SDS011;20605;49.742;18.802;2023-02-28T03:11:04;16.50;;;11.50;;
32491;SDS011;20605;49.742;18.802;2023-02-28T03:13:52;19.20;;;13.70;;
32491;SDS011;20605;49.742;18.802;2023-02-28T03:25:08;21.10;;;13.80;;
32491;SDS011;20605;49.742;18.802;2023-02-28T03:27:39;18.80;;;12.20;;
32491;SDS011;20605;49.742;18.802;2023-02-28T03:30:34;18.10;;;13.30;;
32491;SDS011;20605;49.742;18.802;2023-02-28T03:36:00;17.30;;;10.40;;
32491;SDS011;20605;49.742;18.802;2023-02-28T03:38:35;17.20;;;10.50;;
32491;SDS011;20605;49.742;18.802;2023-02-28T03:41:09;18.30;;;10.20;;
32491;SDS011;20605;49.742;18.802;2023-02-28T03:43:41;17.30;;;10.10;;
32491;SDS011;20605;49.742;18.802;2023-02-28T03:46:14;17.00;;;10.50;;
32491;SDS011;20605;49.742;18.802;2023-02-28T03:49:30;16.50;;;9.90;;
32491;SDS011;20605;49.742;18.802;2023-02-28T03:51:41;18.60;;;10.90;;
32491;SDS011;20605;49.742;18.802;2023-02-28T03:54:11;17.80;;;11.00;;
32491;SDS011;20605;49.742;18.802;2023-02-28T03:56:56;16.20;;;9.80;;
32491;SDS011;20605;49.742;18.802;2023-02-28T03:59:30;15.90;;;10.70;;
32491;SDS011;20605;49.742;18.802;2023-02-28T04:02:01;15.30;;;10.40;;
32491;SDS011;20605;49.742;18.802;2023-02-28T04:04:28;15.20;;;10.50;;
32491;SDS011;20605;49.742;18.802;2023-02-28T04:07:00;21.60;;;11.80;;
32491;SDS011;20605;49.742;18.802;2023-02-28T04:09:28;24.20;;;14.60;;
32491;SDS011;20605;49.742;18.802;2023-02-28T04:11:54;26.40;;;16.00;;
32491;SDS011;20605;49.742;18.802;2023-02-28T04:14:21;17.90;;;11.80;;
32491;SDS011;20605;49.742;18.802;2023-02-28T04:16:47;20.60;;;12.60;;
32491;SDS011;20605;49.742;18.802;2023-02-28T04:19:14;20.10;;;13.50;;
32491;SDS011;20605;49.742;18.802;2023-02-28T04:21:41;18.40;;;12.20;;
32491;SDS011;20605;49.742;18.802;2023-02-28T04:24:10;20.80;;;13.10;;
32491;SDS011;20605;49.742;18.802;2023-02-28T04:26:40;35.60;;;19.00;;
32491;SDS011;20605;49.742;18.802;2023-02-28T04:29:09;22.60;;;14.10;;
32491;SDS011;20605;49.742;18.802;2023-02-28T04:31:37;28.80;;;16.70;;
32491;SDS011;20605;49.742;18.802;2023-02-28T04:34:03;25.40;;;15.10;;
32491;SDS011;20605;49.742;18.802;2023-02-28T04:36:30;22.90;;;13.60;;
32491;SDS011;20605;49.742;18.802;2023-02-28T04:38:56;23.10;;;14.60;;
32491;SDS011;20605;49.742;18.802;2023-02-28T04:41:22;23.00;;;13.30;;
32491;SDS011;20605;49.742;18.802;2023-02-28T04:43:48;22.60;;;13.40;;
32491;SDS011;20605;49.742;18.802;2023-02-28T04:46:14;21.60;;;14.80;;
32491;SDS011;20605;49.742;18.802;2023-02-28T04:48:40;22.10;;;14.90;;
32491;SDS011;20605;49.742;18.802;2023-02-28T04:51:11;27.00;;;13.70;;
32491;SDS011;20605;49.742;18.802;2023-02-28T04:53:38;26.70;;;14.70;;
32491;SDS011;20605;49.742;18.802;2023-02-28T04:56:06;26.50;;;16.20;;
32491;SDS011;20605;49.742;18.802;2023-02-28T04:58:34;31.70;;;18.60;;
32491;SDS011;20605;49.742;18.802;2023-02-28T05:01:04;25.40;;;16.20;;
32491;SDS011;20605;49.742;18.802;2023-02-28T05:03:38;27.20;;;15.10;;
32491;SDS011;20605;49.742;18.802;2023-02-28T05:06:08;20.20;;;13.80;;
32491;SDS011;20605;49.742;18.802;2023-02-28T05:08:35;27.80;;;18.20;;
32491;SDS011;20605;49.742;18.802;2023-02-28T05:11:01;24.90;;;16.80;;
32491;SDS011;20605;49.742;18.802;2023-02-28T05:13:27;30.00;;;18.40;;
32491;SDS011;20605;49.742;18.802;2023-02-28T05:15:54;29.50;;;17.60;;
32491;SDS011;20605;49.742;18.802;2023-02-28T05:18:20;26.80;;;17.10;;
32491;SDS011;20605;49.742;18.802;2023-02-28T05:20:46;28.20;;;19.30;;
32491;SDS011;20605;49.742;18.802;2023-02-28T05:23:12;23.70;;;15.90;;
32491;SDS011;20605;49.742;18.802;2023-02-28T05:25:38;25.40;;;15.40;;
32491;SDS011;20605;49.742;18.802;2023-02-28T05:28:06;26.30;;;15.50;;
32491;SDS011;20605;49.742;18.802;2023-02-28T05:30:32;24.00;;;14.60;;
32491;SDS011;20605;49.742;18.802;2023-02-28T05:32:58;24.10;;;14.30;;
32491;SDS011;20605;49.742;18.802;2023-02-28T05:35:25;27.50;;;15.10;;
32491;SDS011;20605;49.742;18.802;2023-02-28T05:37:51;23.20;;;14.40;;
32491;SDS011;20605;49.742;18.802;2023-02-28T05:40:17;39.20;;;21.40;;
32491;SDS011;20605;49.742;18.802;2023-02-28T05:42:45;31.70;;;17.60;;
32491;SDS011;20605;49.742;18.802;2023-02-28T05:45:12;31.40;;;20.10;;
32491;SDS011;20605;49.742;18.802;2023-02-28T05:47:38;31.60;;;21.30;;
32491;SDS011;20605;49.742;18.802;2023-02-28T05:50:04;42.30;;;24.60;;
32491;SDS011;20605;49.742;18.802;2023-02-28T05:52:30;76.20;;;34.50;;
32491;SDS011;20605;49.742;18.802;2023-02-28T05:54:56;95.20;;;39.50;;
32491;SDS011;20605;49.742;18.802;2023-02-28T05:57:23;104.30;;;43.80;;
32491;SDS011;20605;49.742;18.802;2023-02-28T05:59:50;68.60;;;33.20;;
32491;SDS011;20605;49.742;18.802;2023-02-28T06:02:16;51.10;;;27.70;;
32491;SDS011;20605;49.742;18.802;2023-02-28T06:04:43;30.80;;;19.20;;
32491;SDS011;20605;49.742;18.802;2023-02-28T06:07:10;29.00;;;16.60;;
32491;SDS011;20605;49.742;18.802;2023-02-28T06:09:36;29.50;;;16.70;;
32491;SDS011;20605;49.742;18.802;2023-02-28T06:12:03;26.70;;;16.50;;
32491;SDS011;20605;49.742;18.802;2023-02-28T06:14:31;64.50;;;27.00;;
32491;SDS011;20605;49.742;18.802;2023-02-28T06:16:59;93.90;;;49.80;;
32491;SDS011;20605;49.742;18.802;2023-02-28T06:19:25;91.00;;;53.00;;
32491;SDS011;20605;49.742;18.802;2023-02-28T06:21:52;46.60;;;29.50;;
32491;SDS011;20605;49.742;18.802;2023-02-28T06:24:20;342.30;;;194.50;;
32491;SDS011;20605;49.742;18.802;2023-02-28T06:26:46;301.50;;;164.90;;
32491;SDS011;20605;49.742;18.802;2023-02-28T06:29:14;441.80;;;253.20;;
32491;SDS011;20605;49.742;18.802;2023-02-28T06:31:44;662.20;;;397.90;;
32491;SDS011;20605;49.742;18.802;2023-02-28T06:34:10;389.30;;;227.10;;
32491;SDS011;20605;49.742;18.802;2023-02-28T06:36:40;238.10;;;147.30;;
32491;SDS011;20605;49.742;18.802;2023-02-28T06:39:07;255.80;;;170.10;;
32491;SDS011;20605;49.742;18.802;2023-02-28T06:41:34;111.30;;;72.80;;
32491;SDS011;20605;49.742;18.802;2023-02-28T06:44:08;90.50;;;53.70;;
32491;SDS011;20605;49.742;18.802;2023-02-28T06:46:41;56.20;;;34.80;;
32491;SDS011;20605;49.742;18.802;2023-02-28T06:49:08;47.90;;;30.60;;
32491;SDS011;20605;49.742;18.802;2023-02-28T06:51:34;45.50;;;25.40;;
32491;SDS011;20605;49.742;18.802;2023-02-28T06:54:02;42.00;;;26.70;;
32491;SDS011;20605;49.742;18.802;2023-02-28T06:56:28;46.70;;;25.90;;
32491;SDS011;20605;49.742;18.802;2023-02-28T06:58:54;39.20;;;23.40;;
32491;SDS011;20605;49.742;18.802;2023-02-28T07:01:20;39.30;;;23.20;;
32491;SDS011;20605;49.742;18.802;2023-02-28T07:03:48;48.50;;;25.40;;
32491;SDS011;20605;49.742;18.802;2023-02-28T07:06:18;55.90;;;29.80;;
32491;SDS011;20605;49.742;18.802;2023-02-28T07:08:44;49.40;;;25.30;;
32491;SDS011;20605;49.742;18.802;2023-02-28T07:11:10;86.10;;;39.40;;
32491;SDS011;20605;49.742;18.802;2023-02-28T07:13:36;96.80;;;42.70;;
32491;SDS011;20605;49.742;18.802;2023-02-28T07:16:03;64.90;;;31.90;;
32491;SDS011;20605;49.742;18.802;2023-02-28T07:18:31;43.20;;;26.00;;
32491;SDS011;20605;49.742;18.802;2023-02-28T07:20:57;33.70;;;23.70;;
32491;SDS011;20605;49.742;18.802;2023-02-28T07:23:23;38.10;;;26.30;;
32491;SDS011;20605;49.742;18.802;2023-02-28T07:25:50;42.30;;;27.40;;
32491;SDS011;20605;49.742;18.802;2023-02-28T07:28:16;35.60;;;24.20;;
32491;SDS011;20605;49.742;18.802;2023-02-28T07:30:42;31.50;;;21.30;;
32491;SDS011;20605;49.742;18.802;2023-02-28T07:33:08;40.70;;;25.70;;
32491;SDS011;20605;49.742;18.802;2023-02-28T07:35:34;26.00;;;20.20;;
32491;SDS011;20605;49.742;18.802;2023-02-28T07:38:00;28.90;;;20.30;;
32491;SDS011;20605;49.742;18.802;2023-02-28T07:40:25;24.80;;;18.60;;
32491;SDS011;20605;49.742;18.802;2023-02-28T07:42:52;28.10;;;22.90;;
32491;SDS011;20605;49.742;18.802;2023-02-28T07:45:18;24.20;;;19.30;;
32491;SDS011;20605;49.742;18.802;2023-02-28T07:47:44;23.10;;;19.30;;
32491;SDS011;20605;49.742;18.802;2023-02-28T07:50:12;18.80;;;16.40;;
32491;SDS011;20605;49.742;18.802;2023-02-28T07:52:40;18.30;;;16.10;;
32491;SDS011;20605;49.742;18.802;2023-02-28T07:55:07;20.00;;;17.90;;
32491;SDS011;20605;49.742;18.802;2023-02-28T07:57:34;20.10;;;18.10;;
32491;SDS011;20605;49.742;18.802;2023-02-28T08:00:01;22.90;;;20.40;;
32491;SDS011;20605;49.742;18.802;2023-02-28T08:02:36;18.30;;;16.20;;
32491;SDS011;20605;49.742;18.802;2023-02-28T08:05:02;21.30;;;18.10;;
32491;SDS011;20605;49.742;18.802;2023-02-28T08:07:28;23.40;;;21.20;;
32491;SDS011;20605;49.742;18.802;2023-02-28T08:09:54;15.80;;;14.30;;
32491;SDS011;20605;49.742;18.802;2023-02-28T08:12:20;17.90;;;15.90;;
32491;SDS011;20605;49.742;18.802;2023-02-28T08:14:46;15.40;;;13.80;;
32491;SDS011;20605;49.742;18.802;2023-02-28T08:17:11;16.10;;;13.60;;
32491;SDS011;20605;49.742;18.802;2023-02-28T08:19:37;15.00;;;13.60;;
32491;SDS011;20605;49.742;18.802;2023-02-28T08:22:06;15.70;;;14.10;;
32491;SDS011;20605;49.742;18.802;2023-02-28T08:24:32;17.50;;;15.80;;
32491;SDS011;20605;49.742;18.802;2023-02-28T08:26:58;20.50;;;18.50;;
32491;SDS011;20605;49.742;18.802;2023-02-28T08:29:24;17.10;;;15.20;;
32491;SDS011;20605;49.742;18.802;2023-02-28T08:31:50;14.10;;;12.70;;
32491;SDS011;20605;49.742;18.802;2023-02-28T08:34:16;14.10;;;12.60;;
32491;SDS011;20605;49.742;18.802;2023-02-28T08:36:42;13.70;;;12.30;;
32491;SDS011;20605;49.742;18.802;2023-02-28T08:39:10;13.20;;;12.00;;
32491;SDS011;20605;49.742;18.802;2023-02-28T08:41:36;14.30;;;12.60;;
32491;SDS011;20605;49.742;18.802;2023-02-28T08:44:02;14.70;;;12.80;;
32491;SDS011;20605;49.742;18.802;2023-02-28T08:46:28;14.40;;;12.90;;
32491;SDS011;20605;49.742;18.802;2023-02-28T08:48:55;12.50;;;11.20;;
32491;SDS011;20605;49.742;18.802;2023-02-28T08:51:25;12.10;;;10.90;;
32491;SDS011;20605;49.742;18.802;2023-02-28T08:53:58;12.20;;;11.00;;
32491;SDS011;20605;49.742;18.802;2023-02-28T08:56:27;14.30;;;11.90;;
32491;SDS011;20605;49.742;18.802;2023-02-28T08:58:54;14.90;;;13.10;;
32491;SDS011;20605;49.742;18.802;2023-02-28T09:01:22;15.40;;;13.90;;
32491;SDS011;20605;49.742;18.802;2023-02-28T09:03:53;14.00;;;12.60;;
32491;SDS011;20605;49.742;18.802;2023-02-28T09:06:21;14.00;;;12.50;;
32491;SDS011;20605;49.742;18.802;2023-02-28T09:08:48;12.40;;;11.10;;
32491;SDS011;20605;49.742;18.802;2023-02-28T09:11:15;12.60;;;11.40;;
32491;SDS011;20605;49.742;18.802;2023-02-28T09:13:41;14.00;;;11.70;;
32491;SDS011;20605;49.742;18.802;2023-02-28T09:16:07;11.90;;;10.70;;
32491;SDS011;20605;49.742;18.802;2023-02-28T09:18:35;12.30;;;11.10;;
32491;SDS011;20605;49.742;18.802;2023-02-28T09:21:03;11.70;;;10.60;;
32491;SDS011;20605;49.742;18.802;2023-02-28T09:23:30;13.90;;;12.40;;
32491;SDS011;20605;49.742;18.802;2023-02-28T09:25:56;12.60;;;11.20;;
32491;SDS011;20605;49.742;18.802;2023-02-28T09:28:22;12.00;;;10.90;;
32491;SDS011;20605;49.742;18.802;2023-02-28T09:30:49;11.60;;;10.50;;
32491;SDS011;20605;49.742;18.802;2023-02-28T09:33:17;12.10;;;10.90;;
32491;SDS011;20605;49.742;18.802;2023-02-28T09:35:48;9.80;;;8.90;;
32491;SDS011;20605;49.742;18.802;2023-02-28T09:38:22;11.10;;;9.90;;
32491;SDS011;20605;49.742;18.802;2023-02-28T09:40:51;12.20;;;10.30;;
32491;SDS011;20605;49.742;18.802;2023-02-28T09:43:23;9.30;;;8.50;;
32491;SDS011;20605;49.742;18.802;2023-02-28T09:46:54;11.00;;;9.90;;
32491;SDS011;20605;49.742;18.802;2023-02-28T09:48:54;11.70;;;9.90;;
32491;SDS011;20605;49.742;18.802;2023-02-28T09:51:37;11.80;;;10.60;;
32491;SDS011;20605;49.742;18.802;2023-02-28T09:54:06;10.20;;;8.70;;
32491;SDS011;20605;49.742;18.802;2023-02-28T09:56:48;10.80;;;9.70;;
32491;SDS011;20605;49.742;18.802;2023-02-28T09:59:39;16.00;;;12.60;;
32491;SDS011;20605;49.742;18.802;2023-02-28T10:02:57;10.10;;;9.00;;
32491;SDS011;20605;49.742;18.802;2023-02-28T10:13:19;12.10;;;9.80;;
32491;SDS011;20605;49.742;18.802;2023-02-28T10:15:53;9.90;;;8.70;;
32491;SDS011;20605;49.742;18.802;2023-02-28T10:18:25;17.40;;;11.80;;
32491;SDS011;20605;49.742;18.802;2023-02-28T10:20:56;13.80;;;11.30;;
32491;SDS011;20605;49.742;18.802;2023-02-28T10:25:59;13.50;;;10.30;;
32491;SDS011;20605;49.742;18.802;2023-02-28T10:28:28;17.50;;;13.50;;
32491;SDS011;20605;49.742;18.802;2023-02-28T10:30:56;11.90;;;9.10;;
32491;SDS011;20605;49.742;18.802;2023-02-28T10:33:25;11.60;;;9.40;;
32491;SDS011;20605;49.742;18.802;2023-02-28T10:36:02;12.60;;;9.40;;
32491;SDS011;20605;49.742;18.802;2023-02-28T10:38:32;15.50;;;10.50;;
32491;SDS011;20605;49.742;18.802;2023-02-28T10:41:05;13.80;;;9.50;;
32491;SDS011;20605;49.742;18.802;2023-02-28T10:43:31;15.50;;;10.90;;
32491;SDS011;20605;49.742;18.802;2023-02-28T10:51:36;14.80;;;11.60;;
32491;SDS011;20605;49.742;18.802;2023-02-28T10:54:04;15.80;;;10.60;;
32491;SDS011;20605;49.742;18.802;2023-02-28T10:56:31;17.00;;;11.40;;
32491;SDS011;20605;49.742;18.802;2023-02-28T11:01:52;19.30;;;11.80;;
32491;SDS011;20605;49.742;18.802;2023-02-28T11:04:39;15.90;;;10.10;;
32491;SDS011;20605;49.742;18.802;2023-02-28T11:07:06;18.40;;;11.40;;
32491;SDS011;20605;49.742;18.802;2023-02-28T11:09:45;19.20;;;12.00;;
32491;SDS011;20605;49.742;18.802;2023-02-28T11:12:22;21.70;;;15.50;;
32491;SDS011;20605;49.742;18.802;2023-02-28T11:14:58;20.00;;;13.60;;
32491;SDS011;20605;49.742;18.802;2023-02-28T11:17:28;18.40;;;12.70;;
32491;SDS011;20605;49.742;18.802;2023-02-28T11:20:03;18.40;;;13.40;;
32491;SDS011;20605;49.742;18.802;2023-02-28T11:22:37;22.40;;;14.80;;
32491;SDS011;20605;49.742;18.802;2023-02-28T11:25:12;22.90;;;13.10;;
32491;SDS011;20605;49.742;18.802;2023-02-28T11:27:47;19.60;;;13.30;;
32491;SDS011;20605;49.742;18.802;2023-02-28T11:30:26;23.30;;;13.80;;
32491;SDS011;20605;49.742;18.802;2023-02-28T11:32:54;22.60;;;13.90;;
32491;SDS011;20605;49.742;18.802;2023-02-28T11:35:24;22.70;;;15.20;;
32491;SDS011;20605;49.742;18.802;2023-02-28T11:48:21;23.50;;;14.50;;
32491;SDS011;20605;49.742;18.802;2023-02-28T11:51:01;24.40;;;15.70;;
32491;SDS011;20605;49.742;18.802;2023-02-28T12:04:52;25.20;;;16.00;;
32491;SDS011;20605;49.742;18.802;2023-02-28T12:10:22;24.50;;;15.70;;
32491;SDS011;20605;49.742;18.802;2023-02-28T12:13:07;25.10;;;16.70;;
32491;SDS011;20605;49.742;18.802;2023-02-28T12:32:30;27.00;;;18.60;;
32491;SDS011;20605;49.742;18.802;2023-02-28T12:34:55;40.10;;;22.20;;
32491;SDS011;20605;49.742;18.802;2023-02-28T12:37:31;27.30;;;17.60;;
32491;SDS011;20605;49.742;18.802;2023-02-28T12:40:13;27.50;;;16.90;;
32491;SDS011;20605;49.742;18.802;2023-02-28T12:42:46;28.20;;;17.90;;
32491;SDS011;20605;49.742;18.802;2023-02-28T12:45:20;27.90;;;18.40;;
32491;SDS011;20605;49.742;18.802;2023-02-28T12:47:55;25.70;;;17.40;;
32491;SDS011;20605;49.742;18.802;2023-02-28T12:50:28;28.70;;;18.70;;
32491;SDS011;20605;49.742;18.802;2023-02-28T12:55:42;26.60;;;18.10;;
32491;SDS011;20605;49.742;18.802;2023-02-28T12:58:21;29.10;;;17.50;;
32491;SDS011;20605;49.742;18.802;2023-02-28T13:09:17;23.50;;;16.80;;
32491;SDS011;20605;49.742;18.802;2023-02-28T13:11:45;28.90;;;17.30;;
32491;SDS011;20605;49.742;18.802;2023-02-28T13:19:33;24.40;;;16.30;;
32491;SDS011;20605;49.742;18.802;2023-02-28T13:22:02;25.10;;;16.20;;
32491;SDS011;20605;49.742;18.802;2023-02-28T13:24:39;23.40;;;15.20;;
32491;SDS011;20605;49.742;18.802;2023-02-28T13:29:39;21.00;;;15.40;;
32491;SDS011;20605;49.742;18.802;2023-02-28T13:42:36;22.70;;;14.90;;
32491;SDS011;20605;49.742;18.802;2023-02-28T13:58:57;25.00;;;16.30;;
32491;SDS011;20605;49.742;18.802;2023-02-28T14:04:12;22.90;;;15.00;;
32491;SDS011;20605;49.742;18.802;2023-02-28T14:06:51;22.40;;;15.20;;
32491;SDS011;20605;49.742;18.802;2023-02-28T14:09:27;24.50;;;15.10;;
32491;SDS011;20605;49.742;18.802;2023-02-28T14:11:57;25.80;;;16.90;;
32491;SDS011;20605;49.742;18.802;2023-02-28T14:17:12;19.30;;;13.70;;
32491;SDS011;20605;49.742;18.802;2023-02-28T14:19:43;20.00;;;13.70;;
32491;SDS011;20605;49.742;18.802;2023-02-28T14:25:18;20.70;;;14.20;;
32491;SDS011;20605;49.742;18.802;2023-02-28T14:31:16;18.00;;;13.00;;
32491;SDS011;20605;49.742;18.802;2023-02-28T14:38:26;25.00;;;18.60;;
32491;SDS011;20605;49.742;18.802;2023-02-28T14:40:57;22.00;;;14.80;;
32491;SDS011;20605;49.742;18.802;2023-02-28T14:43:26;22.20;;;15.30;;
32491;SDS011;20605;49.742;18.802;2023-02-28T14:45:58;28.20;;;18.20;;
32491;SDS011;20605;49.742;18.802;2023-02-28T14:48:26;24.00;;;15.20;;
32491;SDS011;20605;49.742;18.802;2023-02-28T14:50:54;22.00;;;16.00;;
32491;SDS011;20605;49.742;18.802;2023-02-28T14:53:23;48.90;;;26.10;;
32491;SDS011;20605;49.742;18.802;2023-02-28T14:55:52;32.10;;;20.70;;
32491;SDS011;20605;49.742;18.802;2023-02-28T14:58:26;42.60;;;26.10;;
32491;SDS011;20605;49.742;18.802;2023-02-28T15:00:55;26.80;;;17.40;;
32491;SDS011;20605;49.742;18.802;2023-02-28T15:05:59;22.10;;;15.30;;
32491;SDS011;20605;49.742;18.802;2023-02-28T15:08:28;21.70;;;14.60;;
32491;SDS011;20605;49.742;18.802;2023-02-28T15:10:58;23.70;;;16.00;;
32491;SDS011;20605;49.742;18.802;2023-02-28T15:16:20;23.70;;;14.60;;
32491;SDS011;20605;49.742;18.802;2023-02-28T15:19:16;22.00;;;15.20;;
32491;SDS011;20605;49.742;18.802;2023-02-28T15:21:48;26.30;;;15.60;;
32491;SDS011;20605;49.742;18.802;2023-02-28T15:27:10;22.40;;;14.50;;
32491;SDS011;20605;49.742;18.802;2023-02-28T15:29:46;20.90;;;14.80;;
32491;SDS011;20605;49.742;18.802;2023-02-28T15:32:29;20.60;;;15.50;;
32491;SDS011;20605;49.742;18.802;2023-02-28T15:34:57;22.20;;;15.50;;
32491;SDS011;20605;49.742;18.802;2023-02-28T15:43:04;23.20;;;15.20;;
32491;SDS011;20605;49.742;18.802;2023-02-28T15:45:47;21.60;;;15.30;;
32491;SDS011;20605;49.742;18.802;2023-02-28T15:48:33;23.20;;;14.90;;
32491;SDS011;20605;49.742;18.802;2023-02-28T15:53:35;22.10;;;15.60;;
32491;SDS011;20605;49.742;18.802;2023-02-28T15:59:01;26.20;;;16.40;;
32491;SDS011;20605;49.742;18.802;2023-02-28T16:01:32;27.50;;;18.00;;
32491;SDS011;20605;49.742;18.802;2023-02-28T16:04:04;25.60;;;17.10;;
32491;SDS011;20605;49.742;18.802;2023-02-28T16:09:14;30.00;;;21.50;;
32491;SDS011;20605;49.742;18.802;2023-02-28T16:11:42;29.10;;;19.00;;
32491;SDS011;20605;49.742;18.802;2023-02-28T16:14:18;28.50;;;17.70;;
32491;SDS011;20605;49.742;18.802;2023-02-28T16:16:49;26.30;;;19.10;;
32491;SDS011;20605;49.742;18.802;2023-02-28T16:19:19;27.90;;;18.50;;
32491;SDS011;20605;49.742;18.802;2023-02-28T16:21:45;27.20;;;18.60;;
32491;SDS011;20605;49.742;18.802;2023-02-28T16:24:12;29.80;;;19.40;;
32491;SDS011;20605;49.742;18.802;2023-02-28T16:26:39;33.50;;;20.70;;
32491;SDS011;20605;49.742;18.802;2023-02-28T16:29:07;34.20;;;22.20;;
32491;SDS011;20605;49.742;18.802;2023-02-28T16:31:38;32.60;;;21.90;;
32491;SDS011;20605;49.742;18.802;2023-02-28T16:34:04;36.20;;;22.00;;
32491;SDS011;20605;49.742;18.802;2023-02-28T16:36:31;35.40;;;21.70;;
32491;SDS011;20605;49.742;18.802;2023-02-28T16:38:56;40.20;;;26.70;;
32491;SDS011;20605;49.742;18.802;2023-02-28T16:41:24;38.00;;;24.80;;
32491;SDS011;20605;49.742;18.802;2023-02-28T16:43:52;37.60;;;24.10;;
32491;SDS011;20605;49.742;18.802;2023-02-28T16:46:24;34.80;;;23.90;;
32491;SDS011;20605;49.742;18.802;2023-02-28T16:48:57;37.30;;;23.30;;
32491;SDS011;20605;49.742;18.802;2023-02-28T16:51:23;34.90;;;22.40;;
32491;SDS011;20605;49.742;18.802;2023-02-28T16:53:48;38.90;;;23.80;;
32491;SDS011;20605;49.742;18.802;2023-02-28T16:56:18;39.30;;;25.20;;
32491;SDS011;20605;49.742;18.802;2023-02-28T16:58:46;45.10;;;27.80;;
32491;SDS011;20605;49.742;18.802;2023-02-28T17:01:13;51.60;;;30.30;;
32491;SDS011;20605;49.742;18.802;2023-02-28T17:03:40;46.30;;;28.90;;
32491;SDS011;20605;49.742;18.802;2023-02-28T17:06:17;54.60;;;30.50;;
32491;SDS011;20605;49.742;18.802;2023-02-28T17:08:47;106.70;;;54.90;;
32491;SDS011;20605;49.742;18.802;2023-02-28T17:11:14;177.70;;;81.90;;
32491;SDS011;20605;49.742;18.802;2023-02-28T17:13:41;74.30;;;40.10;;
32491;SDS011;20605;49.742;18.802;2023-02-28T17:16:09;99.30;;;51.60;;
32491;SDS011;20605;49.742;18.802;2023-02-28T17:18:43;189.20;;;85.40;;
32491;SDS011;20605;49.742;18.802;2023-02-28T17:21:15;82.20;;;43.40;;